Time;durP1;ratioP1;P1;durP2;ratioP2;P2;SDS_P1;SDS_P2;PMS_P1;PMS_P2;Temp;Humidity;BMP_temperature;BMP_pressure;BME280_temperature;BME280_humidity;BME280_pressure;Samples;Min_cycle;Max_cycle;Signal;HPM_P1;HPM_P2
2023/10/11 00:02:16;;;;;;;;;12.25;11.25;;;;;;;;5144921;27;8792;-78
2023/10/11 00:04:42;;;;;;;;;14.00;9.25;;;;;;;;5127443;27;8823;-78
2023/10/11 00:07:07;;;;;;;;;11.00;11.00;;;;;;;;5124602;28;8817;-78
2023/10/11 00:09:35;;;;;;;;;13.75;9.00;;;;;;;;5122731;28;8803;-78
2023/10/11 00:12:04;;;;;;;;;18.50;11.25;;;;;;;;5133649;27;8733;-78
2023/10/11 00:14:30;;;;;;;;;16.50;9.25;;;;;;;;5144525;27;10282;-78
2023/10/11 00:16:55;;;;;;;;;12.50;11.00;;;;;;;;5134727;27;10468;-78
2023/10/11 00:19:24;;;;;;;;;15.00;8.50;;;;;;;;5123831;28;8809;-78
2023/10/11 00:21:50;;;;;;;;;14.25;10.75;;;;;;;;5122214;27;8823;-78
2023/10/11 00:24:17;;;;;;;;;14.25;11.00;;;;;;;;5122780;28;10466;-78
2023/10/11 00:26:44;;;;;;;;;8.75;8.25;;;;;;;;5121698;28;10429;-78
2023/10/11 00:29:09;;;;;;;;;11.00;9.75;;;;;;;;5122658;28;10053;-78
2023/10/11 00:31:35;;;;;;;;;16.50;11.00;;;;;;;;5122490;28;10230;-78
2023/10/11 00:34:03;;;;;;;;;11.00;11.00;;;;;;;;5131596;27;8769;-78
2023/10/11 00:36:31;;;;;;;;;9.25;7.50;;;;;;;;5143988;27;8798;-78
2023/10/11 00:38:57;;;;;;;;;14.25;13.00;;;;;;;;5128579;27;10044;-78
2023/10/11 00:41:25;;;;;;;;;11.75;11.00;;;;;;;;5124248;28;10271;-78
2023/10/11 00:43:55;;;;;;;;;15.50;11.25;;;;;;;;5121987;28;8735;-78
2023/10/11 00:46:38;;;;;;;;;13.25;11.75;;;;;;;;5133556;27;10499;-78
2023/10/11 00:49:17;;;;;;;;;14.00;7.75;;;;;;;;5130955;27;10166;-78
2023/10/11 00:51:44;;;;;;;;;12.50;11.00;;;;;;;;5103146;28;10459;-78
2023/10/11 00:54:13;;;;;;;;;14.75;9.50;;;;;;;;5132444;27;10348;-78
2023/10/11 00:56:43;;;;;;;;;11.75;9.25;;;;;;;;5139022;27;10431;-78
2023/10/11 00:59:10;;;;;;;;;12.25;11.50;;;;;;;;5123069;27;10284;-78
2023/10/11 01:01:36;;;;;;;;;10.50;9.50;;;;;;;;5123171;28;10301;-78
2023/10/11 01:04:02;;;;;;;;;8.50;8.25;;;;;;;;5122073;28;10421;-78
2023/10/11 01:06:28;;;;;;;;;11.50;7.25;;;;;;;;5123798;28;10695;-78
2023/10/11 01:08:54;;;;;;;;;14.25;12.75;;;;;;;;5122943;28;8808;-78
2023/10/11 01:11:19;;;;;;;;;15.75;13.25;;;;;;;;5122146;28;10349;-78
2023/10/11 01:13:50;;;;;;;;;18.50;14.00;;;;;;;;5121283;28;8803;-78
2023/10/11 01:16:17;;;;;;;;;11.25;11.25;;;;;;;;5138989;27;10288;-78
2023/10/11 01:18:42;;;;;;;;;14.50;10.00;;;;;;;;5138808;27;10287;-78
2023/10/11 01:21:08;;;;;;;;;13.75;11.00;;;;;;;;5121711;28;10291;-78
2023/10/11 01:23:34;;;;;;;;;9.75;7.25;;;;;;;;5123160;27;8908;-78
2023/10/11 01:26:08;;;;;;;;;13.75;10.75;;;;;;;;5122797;27;9732;-78
2023/10/11 01:28:35;;;;;;;;;17.25;13.25;;;;;;;;5122910;28;10430;-78
2023/10/11 01:31:01;;;;;;;;;14.00;11.50;;;;;;;;5122781;28;10586;-78
2023/10/11 01:33:27;;;;;;;;;12.00;10.00;;;;;;;;5123169;28;10334;-78
2023/10/11 01:35:52;;;;;;;;;14.75;11.50;;;;;;;;5122909;28;10565;-78
2023/10/11 01:38:18;;;;;;;;;11.75;9.50;;;;;;;;5121795;28;8828;-78
2023/10/11 01:40:43;;;;;;;;;18.50;14.00;;;;;;;;5122959;27;8804;-78
2023/10/11 01:43:09;;;;;;;;;13.00;13.00;;;;;;;;5121648;27;8788;-78
2023/10/11 01:45:34;;;;;;;;;14.75;13.75;;;;;;;;5122826;28;10082;-78
2023/10/11 01:48:00;;;;;;;;;10.50;9.00;;;;;;;;5127197;27;9055;-78
2023/10/11 01:50:28;;;;;;;;;11.75;10.75;;;;;;;;5142256;27;8885;-78
2023/10/11 01:52:53;;;;;;;;;9.75;8.50;;;;;;;;5143422;27;10383;-78
2023/10/11 01:55:19;;;;;;;;;13.25;11.75;;;;;;;;5128085;27;10601;-78
2023/10/11 01:57:49;;;;;;;;;16.00;11.75;;;;;;;;5122551;28;8814;-78
2023/10/11 02:00:15;;;;;;;;;18.00;10.25;;;;;;;;5122412;28;8767;-78
2023/10/11 02:02:47;;;;;;;;;12.25;8.50;;;;;;;;5121570;28;10347;-78
2023/10/11 02:05:12;;;;;;;;;13.50;11.50;;;;;;;;5114847;28;10597;-78
2023/10/11 02:07:39;;;;;;;;;16.00;13.00;;;;;;;;5122774;28;10444;-78
2023/10/11 02:10:05;;;;;;;;;19.50;11.75;;;;;;;;5124215;27;8808;-78
2023/10/11 02:12:30;;;;;;;;;17.50;14.50;;;;;;;;5125498;28;11200;-78
2023/10/11 02:14:55;;;;;;;;;15.00;13.00;;;;;;;;5125729;28;11564;-78
2023/10/11 02:17:23;;;;;;;;;13.25;12.50;;;;;;;;5124794;28;8807;-78
2023/10/11 02:19:49;;;;;;;;;14.00;9.00;;;;;;;;5126297;28;8909;-78
2023/10/11 02:22:18;;;;;;;;;14.50;10.25;;;;;;;;5125869;28;10454;-78
2023/10/11 02:24:44;;;;;;;;;13.50;12.50;;;;;;;;5126123;28;8792;-78
2023/10/11 02:27:17;;;;;;;;;16.00;14.00;;;;;;;;5125469;27;10512;-78
2023/10/11 02:29:42;;;;;;;;;11.25;11.00;;;;;;;;5141433;27;8736;-78
2023/10/11 02:32:08;;;;;;;;;13.00;11.00;;;;;;;;5125520;28;10284;-78
2023/10/11 02:34:35;;;;;;;;;10.50;9.50;;;;;;;;5124577;28;10390;-78
2023/10/11 02:37:10;;;;;;;;;9.00;9.00;;;;;;;;5124656;28;8745;-78
2023/10/11 02:39:42;;;;;;;;;11.00;11.00;;;;;;;;5125606;27;10374;-78
2023/10/11 02:42:07;;;;;;;;;9.25;9.25;;;;;;;;5125447;27;10449;-78
2023/10/11 02:44:33;;;;;;;;;17.25;13.50;;;;;;;;5123977;28;11506;-78
2023/10/11 02:46:58;;;;;;;;;12.75;12.00;;;;;;;;5124202;28;8824;-78
2023/10/11 02:49:24;;;;;;;;;13.25;11.00;;;;;;;;5123647;28;8884;-78
2023/10/11 02:51:53;;;;;;;;;14.25;9.00;;;;;;;;5125976;28;8818;-78
2023/10/11 02:54:19;;;;;;;;;14.25;11.25;;;;;;;;5129221;27;8760;-78
2023/10/11 02:56:47;;;;;;;;;13.75;10.75;;;;;;;;5145968;27;10429;-78
2023/10/11 02:59:25;;;;;;;;;11.50;9.25;;;;;;;;5125670;27;11741;-78
2023/10/11 03:02:00;;;;;;;;;10.00;9.50;;;;;;;;5125350;28;10280;-78
2023/10/11 03:04:29;;;;;;;;;12.25;9.50;;;;;;;;5123724;28;10708;-78
2023/10/11 03:06:54;;;;;;;;;13.00;11.50;;;;;;;;5124139;28;10546;-78
2023/10/11 03:09:20;;;;;;;;;12.50;11.00;;;;;;;;5123329;28;10585;-78
2023/10/11 03:11:48;;;;;;;;;16.25;12.25;;;;;;;;5125630;28;8818;-78
2023/10/11 03:14:13;;;;;;;;;14.00;14.00;;;;;;;;5124453;28;8849;-77
2023/10/11 03:16:42;;;;;;;;;11.00;11.00;;;;;;;;5125068;28;10309;-78
2023/10/11 03:19:09;;;;;;;;;14.75;8.25;;;;;;;;5135000;27;8749;-78
2023/10/11 03:21:35;;;;;;;;;14.25;11.75;;;;;;;;5124841;27;10726;-78
2023/10/11 03:24:03;;;;;;;;;14.50;8.75;;;;;;;;5123023;28;10664;-78
2023/10/11 03:28:57;;;;;;;;;17.25;13.50;;;;;;;;5104506;28;11374;-77
2023/10/11 03:31:29;;;;;;;;;15.25;11.25;;;;;;;;5118467;28;8745;-78
2023/10/11 03:33:59;;;;;;;;;12.75;9.00;;;;;;;;5123738;28;10702;-78
2023/10/11 03:36:35;;;;;;;;;12.25;11.25;;;;;;;;5125812;27;10587;-78
2023/10/11 03:39:08;;;;;;;;;16.50;14.00;;;;;;;;5145272;27;10691;-78
2023/10/11 03:41:35;;;;;;;;;20.75;14.00;;;;;;;;5132528;27;10615;-78
2023/10/11 03:44:09;;;;;;;;;18.00;17.00;;;;;;;;5125668;28;10859;-77
2023/10/11 03:46:35;;;;;;;;;22.75;19.25;;;;;;;;5132916;27;10975;-78
2023/10/11 03:49:32;;;;;;;;;14.00;13.75;;;;;;;;5145397;27;10960;-78
2023/10/11 03:51:48;;;;;;;;;24.75;17.50;;;;;;;;5131944;27;8932;-78
2023/10/11 03:54:21;;;;;;;;;22.25;17.25;;;;;;;;5124548;27;11803;-78
2023/10/11 03:56:52;;;;;;;;;18.75;15.25;;;;;;;;5144996;27;8781;-78
2023/10/11 03:59:18;;;;;;;;;21.00;16.75;;;;;;;;5145309;27;10890;-78
2023/10/11 04:01:44;;;;;;;;;19.75;13.75;;;;;;;;5144984;27;10815;-78
2023/10/11 04:04:09;;;;;;;;;19.00;13.00;;;;;;;;5132637;27;11017;-78
2023/10/11 04:06:34;;;;;;;;;22.00;14.00;;;;;;;;5122792;28;8826;-78
2023/10/11 04:09:03;;;;;;;;;17.25;12.00;;;;;;;;5123734;28;8811;-78
2023/10/11 04:11:54;;;;;;;;;18.00;14.75;;;;;;;;5122800;28;9719;-78
2023/10/11 04:14:39;;;;;;;;;12.75;12.00;;;;;;;;5123732;28;11039;-78
2023/10/11 04:17:25;;;;;;;;;12.25;12.00;;;;;;;;5123842;28;10844;-78
2023/10/11 04:20:00;;;;;;;;;19.25;16.25;;;;;;;;5122303;28;10709;-78
2023/10/11 04:22:27;;;;;;;;;17.75;16.00;;;;;;;;5123136;27;10730;-78
2023/10/11 04:24:55;;;;;;;;;16.25;13.25;;;;;;;;5121746;28;11070;-78
2023/10/11 04:29:47;;;;;;;;;16.50;13.00;;;;;;;;5139597;27;10724;-78
2023/10/11 04:32:19;;;;;;;;;18.75;11.50;;;;;;;;5143843;27;8792;-78
2023/10/11 04:34:55;;;;;;;;;20.25;15.00;;;;;;;;5144465;27;8838;-78
2023/10/11 04:37:27;;;;;;;;;17.75;14.00;;;;;;;;5144203;27;10950;-78
2023/10/11 04:39:59;;;;;;;;;16.75;14.50;;;;;;;;5129218;27;10737;-77
2023/10/11 04:42:28;;;;;;;;;15.50;14.00;;;;;;;;5123122;28;10806;-78
2023/10/11 04:44:57;;;;;;;;;15.25;14.00;;;;;;;;5123347;27;10810;-77
2023/10/11 04:47:23;;;;;;;;;15.00;13.75;;;;;;;;5142508;27;11043;-78
2023/10/11 04:49:52;;;;;;;;;15.50;13.75;;;;;;;;5140256;27;10578;-78
2023/10/11 04:52:22;;;;;;;;;17.00;12.50;;;;;;;;5123573;28;10947;-78
2023/10/11 04:54:54;;;;;;;;;15.75;12.00;;;;;;;;5123201;28;11079;-77
2023/10/11 04:57:23;;;;;;;;;15.00;11.00;;;;;;;;5123645;27;10823;-77
2023/10/11 04:59:50;;;;;;;;;16.50;15.50;;;;;;;;5121714;28;11745;-77
2023/10/11 05:02:28;;;;;;;;;15.25;12.75;;;;;;;;5121833;28;10977;-78
2023/10/11 05:04:53;;;;;;;;;13.75;12.25;;;;;;;;5132872;27;10892;-78
2023/10/11 05:07:22;;;;;;;;;18.75;14.25;;;;;;;;5122067;28;10890;-78
2023/10/11 05:10:29;;;;;;;;;18.75;13.50;;;;;;;;5124795;28;8797;-80
2023/10/11 05:12:47;;;;;;;;;15.25;10.75;;;;;;;;5122465;28;10947;-79
2023/10/11 05:15:15;;;;;;;;;16.00;14.75;;;;;;;;5122911;28;10849;-79
2023/10/11 05:17:41;;;;;;;;;17.25;13.75;;;;;;;;5123060;28;10825;-80
2023/10/11 05:20:22;;;;;;;;;15.75;14.25;;;;;;;;5120806;27;10701;-79
2023/10/11 05:27:47;;;;;;;;;15.50;11.75;;;;;;;;5121638;27;9520;-79
2023/10/11 05:30:26;;;;;;;;;24.00;17.75;;;;;;;;5122168;27;10959;-77
2023/10/11 05:33:15;;;;;;;;;17.75;15.50;;;;;;;;5131922;27;10991;-79
2023/10/11 05:52:01;;;;;;;;;24.00;16.00;;;;;;;;5133353;27;11850;-73
2023/10/11 05:54:34;;;;;;;;;22.00;17.50;;;;;;;;5123665;28;10946;-73
2023/10/11 05:57:03;;;;;;;;;18.75;13.75;;;;;;;;5125032;27;8798;-73
2023/10/11 05:59:31;;;;;;;;;17.00;16.50;;;;;;;;5124684;27;11038;-73
2023/10/11 06:01:57;;;;;;;;;14.50;13.00;;;;;;;;5124304;28;11663;-74
2023/10/11 06:04:23;;;;;;;;;23.50;16.00;;;;;;;;5120002;27;10975;-73
2023/10/11 06:06:52;;;;;;;;;17.25;15.25;;;;;;;;5125261;28;8771;-75
2023/10/11 06:09:17;;;;;;;;;22.50;18.50;;;;;;;;5125286;27;11134;-79
2023/10/11 06:11:50;;;;;;;;;15.50;14.00;;;;;;;;5127777;27;11488;-78
2023/10/11 06:14:16;;;;;;;;;21.75;18.75;;;;;;;;5123887;27;8908;-78
2023/10/11 06:16:43;;;;;;;;;16.75;15.00;;;;;;;;5132945;27;11544;-78
2023/10/11 06:19:26;;;;;;;;;21.25;14.50;;;;;;;;5125909;27;11075;-78
2023/10/11 06:21:58;;;;;;;;;20.75;15.50;;;;;;;;5118826;28;10841;-78
2023/10/11 06:24:30;;;;;;;;;17.25;17.00;;;;;;;;5123981;27;10966;-84
2023/10/11 06:26:56;;;;;;;;;14.50;13.25;;;;;;;;5123416;28;11162;-83
2023/10/11 06:29:28;;;;;;;;;18.50;14.25;;;;;;;;5117199;28;10977;-73
2023/10/11 06:31:53;;;;;;;;;21.00;17.00;;;;;;;;5123762;27;11005;-78
2023/10/11 06:36:50;;;;;;;;;15.25;15.25;;;;;;;;5124517;28;8744;-75
2023/10/11 06:42:13;;;;;;;;;18.25;16.00;;;;;;;;5124647;28;11450;-77
2023/10/11 06:44:48;;;;;;;;;20.50;15.50;;;;;;;;5124414;27;10947;-78
2023/10/11 06:47:14;;;;;;;;;14.75;14.00;;;;;;;;5134216;27;11154;-77
2023/10/11 06:49:47;;;;;;;;;24.25;21.00;;;;;;;;5144765;27;11083;-78
2023/10/11 06:52:17;;;;;;;;;23.00;16.00;;;;;;;;5127659;27;8798;-73
2023/10/11 06:54:46;;;;;;;;;24.00;21.50;;;;;;;;5110277;28;11088;-74
2023/10/11 06:57:19;;;;;;;;;17.25;15.25;;;;;;;;5119213;28;11219;-74
2023/10/11 06:59:51;;;;;;;;;18.75;14.50;;;;;;;;5122065;28;12245;-74
2023/10/11 07:02:31;;;;;;;;;18.75;15.75;;;;;;;;5103601;28;10952;-73
2023/10/11 07:05:05;;;;;;;;;19.00;16.50;;;;;;;;5122116;28;10960;-72
2023/10/11 07:07:32;;;;;;;;;25.25;16.00;;;;;;;;5124822;27;12020;-73
2023/10/11 07:09:57;;;;;;;;;20.75;17.50;;;;;;;;5117622;27;10998;-73
2023/10/11 07:12:39;;;;;;;;;20.75;16.75;;;;;;;;5128012;27;10855;-73
2023/10/11 07:15:07;;;;;;;;;21.25;20.25;;;;;;;;5117756;28;8752;-74
2023/10/11 07:17:32;;;;;;;;;23.50;17.50;;;;;;;;5123948;28;10982;-73
2023/10/11 07:19:58;;;;;;;;;20.75;16.00;;;;;;;;5123056;28;10922;-73
2023/10/11 07:22:26;;;;;;;;;23.50;16.75;;;;;;;;5124854;28;8787;-73
2023/10/11 07:25:36;;;;;;;;;23.50;16.75;;;;;;;;5124109;28;8778;-72
2023/10/11 07:27:53;;;;;;;;;22.25;18.00;;;;;;;;5103059;28;11012;-73
2023/10/11 07:30:19;;;;;;;;;29.75;22.25;;;;;;;;5156097;27;10952;-73
2023/10/11 07:32:45;;;;;;;;;20.25;19.00;;;;;;;;5123903;27;10901;-73
2023/10/11 07:35:17;;;;;;;;;28.50;19.75;;;;;;;;5114915;27;10923;-79
2023/10/11 07:37:43;;;;;;;;;20.50;15.50;;;;;;;;5116673;28;8763;-72
2023/10/11 07:40:11;;;;;;;;;25.25;20.75;;;;;;;;5131317;27;10783;-73
2023/10/11 07:42:39;;;;;;;;;18.75;18.50;;;;;;;;5142749;27;8785;-72
2023/10/11 07:45:12;;;;;;;;;21.00;17.75;;;;;;;;5117737;27;10620;-78
2023/10/11 07:47:39;;;;;;;;;22.00;17.50;;;;;;;;5123467;27;11079;-73
2023/10/11 07:50:05;;;;;;;;;14.75;11.00;;;;;;;;5123204;27;10670;-73
2023/10/11 07:52:30;;;;;;;;;15.25;11.25;;;;;;;;5123461;27;10596;-73
2023/10/11 07:54:56;;;;;;;;;15.25;13.25;;;;;;;;5123470;28;8933;-72
2023/10/11 07:57:21;;;;;;;;;11.00;7.25;;;;;;;;5139496;27;10191;-72
2023/10/11 07:59:51;;;;;;;;;13.00;6.25;;;;;;;;5139281;27;8823;-72
2023/10/11 08:02:41;;;;;;;;;4.75;4.75;;;;;;;;5122449;28;8755;-73
2023/10/11 08:05:06;;;;;;;;;20.50;18.50;;;;;;;;5123316;28;9931;-73
2023/10/11 08:07:32;;;;;;;;;9.00;7.00;;;;;;;;5122656;28;10762;-73
2023/10/11 08:09:57;;;;;;;;;5.25;5.25;;;;;;;;5123748;28;8813;-73
2023/10/11 08:12:23;;;;;;;;;8.00;6.25;;;;;;;;5123563;28;8854;-72
2023/10/11 08:14:53;;;;;;;;;5.50;5.00;;;;;;;;5121741;28;8884;-72
2023/10/11 08:17:21;;;;;;;;;8.75;5.75;;;;;;;;5123173;28;10345;-73
2023/10/11 08:19:53;;;;;;;;;5.00;5.00;;;;;;;;5123516;28;9964;-73
2023/10/11 08:22:19;;;;;;;;;7.00;5.50;;;;;;;;5123342;28;10102;-74
2023/10/11 08:24:49;;;;;;;;;9.00;6.00;;;;;;;;5128721;27;10375;-74
2023/10/11 08:27:22;;;;;;;;;9.25;5.00;;;;;;;;5128573;27;8773;-74
2023/10/11 08:29:52;;;;;;;;;5.75;4.50;;;;;;;;5143394;27;9993;-74
2023/10/11 08:32:17;;;;;;;;;10.25;4.00;;;;;;;;5154894;27;10243;-74
2023/10/11 08:34:46;;;;;;;;;7.75;3.00;;;;;;;;5123359;28;10114;-75
2023/10/11 08:37:12;;;;;;;;;4.75;4.00;;;;;;;;5120964;28;10355;-76
2023/10/11 08:39:46;;;;;;;;;4.00;3.00;;;;;;;;5123392;28;10108;-74
2023/10/11 08:42:14;;;;;;;;;3.00;2.25;;;;;;;;5123344;28;8803;-73
2023/10/11 08:44:41;;;;;;;;;5.25;4.00;;;;;;;;5122444;28;10111;-73
2023/10/11 08:47:06;;;;;;;;;4.50;4.50;;;;;;;;5122475;28;10515;-76
2023/10/11 08:49:34;;;;;;;;;8.75;3.50;;;;;;;;5107480;28;9873;-73
2023/10/11 08:52:04;;;;;;;;;3.25;2.50;;;;;;;;5108309;27;8786;-78
2023/10/11 08:54:30;;;;;;;;;5.00;1.50;;;;;;;;5128399;27;10005;-76
2023/10/11 08:56:57;;;;;;;;;2.00;2.00;;;;;;;;5102940;28;10169;-73
2023/10/11 08:59:25;;;;;;;;;4.25;3.25;;;;;;;;5110848;28;8818;-73
2023/10/11 09:01:52;;;;;;;;;5.00;3.00;;;;;;;;5122986;27;9950;-80
2023/10/11 09:04:17;;;;;;;;;7.00;2.00;;;;;;;;5122557;27;9854;-75
2023/10/11 09:06:43;;;;;;;;;2.00;2.00;;;;;;;;5121448;28;10335;-75
2023/10/11 09:09:15;;;;;;;;;5.25;1.50;;;;;;;;5124907;27;8797;-76
2023/10/11 09:11:52;;;;;;;;;2.50;2.50;;;;;;;;5123330;27;8856;-75
2023/10/11 09:14:23;;;;;;;;;1.25;1.25;;;;;;;;5120538;27;9691;-72
2023/10/11 09:16:57;;;;;;;;;3.75;2.50;;;;;;;;5122191;28;10158;-73
2023/10/11 09:19:22;;;;;;;;;5.25;1.50;;;;;;;;5122122;28;9918;-74
2023/10/11 09:22:04;;;;;;;;;2.00;2.00;;;;;;;;5122777;28;10016;-75
2023/10/11 09:25:04;;;;;;;;;1.25;1.25;;;;;;;;5122424;28;8956;-74
2023/10/11 09:27:22;;;;;;;;;2.25;2.25;;;;;;;;5119237;28;9927;-76
2023/10/11 09:29:50;;;;;;;;;8.00;3.00;;;;;;;;5122262;27;9769;-75
2023/10/11 09:32:19;;;;;;;;;3.00;3.00;;;;;;;;5121580;28;9971;-75
2023/10/11 09:34:51;;;;;;;;;2.00;1.00;;;;;;;;5116031;28;9697;-76
2023/10/11 09:37:16;;;;;;;;;2.00;2.00;;;;;;;;5127539;27;10182;-77
2023/10/11 09:39:42;;;;;;;;;3.25;1.75;;;;;;;;5125820;27;9941;-74
2023/10/11 09:42:10;;;;;;;;;5.25;2.00;;;;;;;;5111383;28;8866;-74
2023/10/11 09:44:44;;;;;;;;;5.00;3.00;;;;;;;;5120671;28;9745;-74
2023/10/11 09:47:19;;;;;;;;;3.50;1.00;;;;;;;;5121686;28;9949;-75
2023/10/11 09:49:46;;;;;;;;;5.00;2.00;;;;;;;;5121773;28;9509;-74
2023/10/11 09:52:23;;;;;;;;;2.00;2.00;;;;;;;;5122010;27;9583;-74
2023/10/11 09:54:50;;;;;;;;;2.75;2.75;;;;;;;;5122029;28;9696;-74
2023/10/11 09:57:21;;;;;;;;;1.75;1.00;;;;;;;;5121169;28;9856;-74
2023/10/11 09:59:59;;;;;;;;;4.00;2.00;;;;;;;;5121391;28;9614;-75
2023/10/11 10:02:44;;;;;;;;;2.00;1.00;;;;;;;;5121048;27;9648;-75
2023/10/11 10:05:10;;;;;;;;;3.50;1.25;;;;;;;;5101151;28;9770;-75
2023/10/11 10:07:44;;;;;;;;;4.00;2.75;;;;;;;;5100969;28;10044;-75
2023/10/11 10:10:15;;;;;;;;;3.75;3.00;;;;;;;;5106705;28;8812;-76
2023/10/11 10:12:58;;;;;;;;;3.00;3.00;;;;;;;;5128877;27;9706;-75
2023/10/11 10:15:36;;;;;;;;;4.25;1.25;;;;;;;;5128235;27;9655;-75
2023/10/11 10:18:12;;;;;;;;;5.50;3.00;;;;;;;;5129621;27;9696;-76
2023/10/11 10:20:43;;;;;;;;;5.75;3.00;;;;;;;;5126612;27;9754;-76
2023/10/11 10:23:29;;;;;;;;;4.00;2.50;;;;;;;;5130594;27;9561;-76
2023/10/11 10:25:59;;;;;;;;;3.33;3.33;;;;;;;;5132515;27;9578;-76
2023/10/11 10:28:36;;;;;;;;;7.75;4.00;;;;;;;;5131538;27;9592;-76
2023/10/11 10:31:09;;;;;;;;;3.33;2.33;;;;;;;;5128996;27;10574;-74
2023/10/11 10:33:35;;;;;;;;;3.00;2.00;;;;;;;;5130933;27;9425;-74
2023/10/11 10:36:22;;;;;;;;;3.00;2.75;;;;;;;;5143869;27;9626;-74
2023/10/11 10:41:31;;;;;;;;;3.50;1.25;;;;;;;;5145287;27;9504;-75
2023/10/11 10:44:09;;;;;;;;;3.67;2.00;;;;;;;;5145200;27;9459;-79
2023/10/11 10:46:35;;;;;;;;;3.67;3.00;;;;;;;;5143547;27;9357;-80
2023/10/11 10:49:03;;;;;;;;;3.00;3.00;;;;;;;;5144226;27;9990;-78
2023/10/11 10:51:35;;;;;;;;;4.33;3.33;;;;;;;;5127828;27;8822;-80
2023/10/11 10:54:04;;;;;;;;;3.00;3.00;;;;;;;;5128939;27;9276;-78
2023/10/11 10:56:29;;;;;;;;;4.33;3.00;;;;;;;;5125534;28;9574;-79
2023/10/11 10:59:04;;;;;;;;;4.67;2.00;;;;;;;;5124653;28;10515;-86
2023/10/11 11:01:33;;;;;;;;;4.00;3.67;;;;;;;;5143011;27;8837;-86
2023/10/11 11:03:59;;;;;;;;;3.33;2.00;;;;;;;;5134826;27;9438;-76
2023/10/11 11:06:25;;;;;;;;;5.33;3.67;;;;;;;;5129939;27;9432;-75
2023/10/11 11:08:50;;;;;;;;;5.67;3.67;;;;;;;;5125413;28;8767;-76
2023/10/11 11:11:28;;;;;;;;;4.33;4.00;;;;;;;;5124799;27;8803;-76
2023/10/11 11:13:54;;;;;;;;;3.67;3.00;;;;;;;;5121979;28;8807;-78
2023/10/11 11:16:26;;;;;;;;;6.67;3.33;;;;;;;;5122828;27;9263;-79
2023/10/11 11:18:51;;;;;;;;;3.00;3.00;;;;;;;;5123918;28;9352;-78
2023/10/11 11:21:21;;;;;;;;;3.00;2.33;;;;;;;;5124250;27;9259;-78
2023/10/11 11:23:49;;;;;;;;;5.00;4.00;;;;;;;;5126493;27;8886;-79
2023/10/11 11:26:17;;;;;;;;;3.00;3.00;;;;;;;;5133977;27;9359;-80
2023/10/11 11:28:43;;;;;;;;;3.00;3.00;;;;;;;;5132046;27;10242;-78
2023/10/11 11:34:05;;;;;;;;;5.33;4.00;;;;;;;;5128918;27;8854;-84
2023/10/11 11:36:31;;;;;;;;;5.00;2.67;;;;;;;;5126134;27;9151;-84
2023/10/11 11:39:17;;;;;;;;;0.67;0.67;;;;;;;;5129342;27;9353;-83
2023/10/11 11:41:43;;;;;;;;;2.67;2.67;;;;;;;;5129679;27;9257;-83
2023/10/11 11:44:11;;;;;;;;;4.00;2.67;;;;;;;;5129627;27;9363;-83
2023/10/11 11:46:39;;;;;;;;;5.67;3.00;;;;;;;;5130127;27;8817;-83
2023/10/11 11:49:09;;;;;;;;;5.00;2.33;;;;;;;;5132626;27;9358;-77
2023/10/11 11:51:37;;;;;;;;;4.33;3.00;;;;;;;;5137382;27;8789;-76
2023/10/11 11:54:03;;;;;;;;;7.00;4.00;;;;;;;;5132202;27;9178;-77
2023/10/11 11:56:29;;;;;;;;;3.00;3.00;;;;;;;;5134757;27;9236;-77
2023/10/11 11:59:00;;;;;;;;;2.67;1.33;;;;;;;;5132900;27;10208;-76
2023/10/11 12:01:26;;;;;;;;;6.00;3.00;;;;;;;;5126495;27;9715;-77
2023/10/11 12:03:54;;;;;;;;;4.00;2.33;;;;;;;;5125606;27;8967;-77
2023/10/11 12:06:23;;;;;;;;;6.00;4.00;;;;;;;;5130339;27;9025;-75
2023/10/11 12:08:58;;;;;;;;;3.00;3.00;;;;;;;;5132618;27;9225;-76
2023/10/11 12:11:28;;;;;;;;;3.00;3.00;;;;;;;;5128174;27;9178;-76
2023/10/11 12:13:56;;;;;;;;;6.00;3.67;;;;;;;;5122611;28;9001;-76
2023/10/11 12:16:22;;;;;;;;;5.67;5.00;;;;;;;;5122113;28;8955;-75
2023/10/11 12:18:48;;;;;;;;;2.33;2.33;;;;;;;;5122654;28;9090;-76
2023/10/11 12:21:15;;;;;;;;;2.67;2.67;;;;;;;;5127373;27;9023;-75
2023/10/11 12:23:47;;;;;;;;;4.33;4.00;;;;;;;;5130305;27;8774;-80
2023/10/11 12:26:20;;;;;;;;;5.00;3.33;;;;;;;;5129188;27;9048;-80
2023/10/11 12:28:46;;;;;;;;;2.00;2.00;;;;;;;;5129676;27;9040;-74
2023/10/11 12:31:11;;;;;;;;;3.00;3.00;;;;;;;;5125488;27;8890;-74
2023/10/11 12:33:37;;;;;;;;;5.33;4.00;;;;;;;;5149020;27;8808;-76
2023/10/11 12:36:05;;;;;;;;;4.67;4.67;;;;;;;;5127544;27;8883;-75
2023/10/11 12:38:39;;;;;;;;;4.67;4.67;;;;;;;;5130526;27;8787;-73
2023/10/11 12:41:09;;;;;;;;;4.00;2.67;;;;;;;;5122162;27;8880;-75
2023/10/11 12:43:35;;;;;;;;;10.33;2.67;;;;;;;;5129840;27;8839;-76
2023/10/11 12:46:00;;;;;;;;;2.00;2.00;;;;;;;;5124394;27;8998;-75
2023/10/11 12:48:26;;;;;;;;;3.00;3.00;;;;;;;;5130073;27;8813;-75
2023/10/11 12:50:51;;;;;;;;;1.67;1.67;;;;;;;;5131355;27;8807;-75
2023/10/11 12:53:16;;;;;;;;;4.33;3.33;;;;;;;;5126804;27;8799;-75
2023/10/11 12:55:43;;;;;;;;;3.00;3.00;;;;;;;;5129626;27;8965;-75
2023/10/11 12:58:13;;;;;;;;;3.25;2.25;;;;;;;;5135034;27;9036;-75
2023/10/11 13:00:51;;;;;;;;;3.25;3.25;;;;;;;;5123813;27;8853;-75
2023/10/11 13:03:28;;;;;;;;;3.50;3.50;;;;;;;;5129376;27;9066;-74
2023/10/11 13:05:53;;;;;;;;;3.00;2.25;;;;;;;;5128753;27;8750;-74
2023/10/11 13:08:24;;;;;;;;;2.00;2.00;;;;;;;;5125225;27;10121;-74
2023/10/11 13:10:50;;;;;;;;;6.00;3.50;;;;;;;;5119539;27;8736;-75
2023/10/11 13:13:16;;;;;;;;;3.25;2.25;;;;;;;;5124676;27;8834;-75
2023/10/11 13:15:53;;;;;;;;;6.00;3.33;;;;;;;;5129879;27;8837;-74
2023/10/11 13:18:19;;;;;;;;;5.75;3.75;;;;;;;;5122317;27;8805;-74
2023/10/11 13:20:45;;;;;;;;;5.25;2.75;;;;;;;;5121602;28;8806;-75
2023/10/11 13:23:11;;;;;;;;;2.00;2.00;;;;;;;;5123574;27;8800;-75
2023/10/11 13:25:36;;;;;;;;;6.00;3.00;;;;;;;;5124798;27;8802;-74
2023/10/11 13:28:03;;;;;;;;;5.33;3.00;;;;;;;;5121707;28;8889;-74
2023/10/11 13:30:28;;;;;;;;;9.25;4.00;;;;;;;;5121469;28;8712;-74
2023/10/11 13:32:57;;;;;;;;;6.33;2.33;;;;;;;;5118837;28;8848;-75
2023/10/11 13:35:23;;;;;;;;;4.67;3.00;;;;;;;;5139325;27;8725;-76
2023/10/11 13:37:48;;;;;;;;;4.00;3.00;;;;;;;;5134091;27;8935;-75
2023/10/11 13:40:17;;;;;;;;;3.67;3.67;;;;;;;;5120833;28;8842;-75
2023/10/11 13:42:43;;;;;;;;;5.00;5.00;;;;;;;;5125393;27;9790;-75
2023/10/11 13:45:09;;;;;;;;;4.67;3.00;;;;;;;;5129493;27;8784;-76
2023/10/11 13:47:36;;;;;;;;;8.50;4.75;;;;;;;;5130092;27;8795;-77
2023/10/11 13:50:08;;;;;;;;;5.00;3.75;;;;;;;;5123829;27;8916;-78
2023/10/11 13:52:36;;;;;;;;;8.50;5.00;;;;;;;;5117718;27;8758;-77
2023/10/11 13:55:03;;;;;;;;;3.50;3.50;;;;;;;;5101560;28;8810;-77
2023/10/11 13:57:29;;;;;;;;;7.25;4.00;;;;;;;;5129611;27;8799;-76
2023/10/11 13:59:55;;;;;;;;;5.00;4.00;;;;;;;;5127029;27;8845;-76
2023/10/11 14:02:33;;;;;;;;;4.67;3.00;;;;;;;;5121618;27;8818;-77
2023/10/11 14:05:13;;;;;;;;;3.75;3.00;;;;;;;;5130414;27;8794;-76
2023/10/11 14:07:49;;;;;;;;;4.25;2.25;;;;;;;;5129783;27;10163;-76
2023/10/11 14:10:15;;;;;;;;;3.00;3.00;;;;;;;;5143189;27;8815;-76
2023/10/11 14:12:41;;;;;;;;;4.00;3.00;;;;;;;;5141503;27;8819;-76
2023/10/11 14:15:16;;;;;;;;;2.67;2.00;;;;;;;;5129667;27;8834;-76
2023/10/11 14:17:44;;;;;;;;;4.25;2.25;;;;;;;;5141086;27;9176;-82
2023/10/11 14:20:18;;;;;;;;;3.00;3.00;;;;;;;;5125803;27;8735;-81
2023/10/11 14:22:44;;;;;;;;;4.50;3.50;;;;;;;;5123098;27;8827;-81
2023/10/11 14:25:11;;;;;;;;;2.00;2.00;;;;;;;;5123741;28;9798;-80
2023/10/11 14:27:39;;;;;;;;;2.00;0.25;;;;;;;;5124480;27;8752;-76
2023/10/11 14:30:05;;;;;;;;;5.00;2.75;;;;;;;;5127544;27;8778;-76
2023/10/11 14:32:33;;;;;;;;;5.50;3.00;;;;;;;;5134430;27;8737;-75
2023/10/11 14:35:08;;;;;;;;;3.75;3.75;;;;;;;;5127809;27;8872;-75
2023/10/11 14:37:34;;;;;;;;;5.25;3.75;;;;;;;;5124336;27;8800;-76
2023/10/11 14:39:59;;;;;;;;;3.33;3.33;;;;;;;;5124773;27;9532;-73
2023/10/11 14:42:24;;;;;;;;;5.00;3.33;;;;;;;;5130975;27;8792;-73
2023/10/11 14:44:50;;;;;;;;;4.00;4.00;;;;;;;;5145859;27;9150;-73
2023/10/11 14:47:15;;;;;;;;;4.33;3.00;;;;;;;;5122955;27;10222;-73
2023/10/11 14:49:40;;;;;;;;;6.67;3.67;;;;;;;;5134225;27;8808;-75
2023/10/11 14:52:07;;;;;;;;;5.67;4.00;;;;;;;;5128775;27;8792;-74
2023/10/11 14:54:39;;;;;;;;;4.75;3.00;;;;;;;;5125299;28;8869;-82
2023/10/11 14:57:04;;;;;;;;;1.25;1.25;;;;;;;;5140702;27;10330;-81
2023/10/11 14:59:34;;;;;;;;;3.67;2.00;;;;;;;;5131381;27;8851;-78
2023/10/11 15:02:00;;;;;;;;;3.25;3.25;;;;;;;;5128330;27;8748;-81
2023/10/11 15:04:25;;;;;;;;;2.00;2.00;;;;;;;;5127417;27;8825;-82
2023/10/11 15:06:52;;;;;;;;;6.67;4.00;;;;;;;;5124934;28;8896;-82
2023/10/11 15:09:17;;;;;;;;;3.25;3.25;;;;;;;;5125042;27;8861;-81
2023/10/11 15:11:43;;;;;;;;;3.67;3.00;;;;;;;;5132485;27;8799;-81
2023/10/11 15:14:08;;;;;;;;;4.00;4.00;;;;;;;;5138720;27;8823;-80
2023/10/11 15:16:36;;;;;;;;;5.33;4.00;;;;;;;;5144761;27;9058;-85
2023/10/11 15:19:05;;;;;;;;;3.75;3.75;;;;;;;;5134746;27;8772;-80
2023/10/11 15:21:30;;;;;;;;;4.75;4.75;;;;;;;;5132586;27;8811;-80
2023/10/11 15:23:56;;;;;;;;;2.33;2.33;;;;;;;;5135448;27;8899;-79
2023/10/11 15:26:21;;;;;;;;;4.00;2.67;;;;;;;;5132990;27;8998;-77
2023/10/11 15:28:47;;;;;;;;;2.00;2.00;;;;;;;;5134218;27;8869;-76